Station: EBLG - 18/06/2019 23:50Z (il y a 16 minutes)
EBLG 182350Z 14007KT CAVOK 20/15 Q1010 NOSIG
Vent du 140º - 7 kt
Visibilité > 10 km et plafond haut ou pas de nuages significatifs
Température: +20ºC - Point de rosée: +15ºC - QNH: 1010 hPa
Pas de changement significatif prévu dans les 2 heures qui suivent l'observation